createdAt,value
2023-02-02T00:01:52.605Z,7.82
2023-02-02T00:04:25.016Z,7.87
2023-02-02T00:06:57.191Z,7.91
2023-02-02T00:09:29.098Z,7.97
2023-02-02T00:11:59.308Z,8.00
2023-02-02T00:14:32.730Z,8.01
2023-02-02T00:17:02.614Z,8.05
2023-02-02T00:19:33.667Z,8.06
2023-02-02T00:22:03.517Z,8.02
2023-02-02T00:24:33.621Z,8.02
2023-02-02T00:27:03.700Z,7.99
2023-02-02T00:29:36.284Z,7.99
2023-02-02T00:32:06.148Z,8.02
2023-02-02T00:34:35.908Z,8.05
2023-02-02T00:37:05.772Z,8.03
2023-02-02T00:39:35.580Z,7.95
2023-02-02T00:42:05.380Z,7.99
2023-02-02T00:44:50.104Z,8.02
2023-02-02T00:47:20.480Z,8.00
2023-02-02T00:49:50.208Z,8.04
2023-02-02T00:52:19.854Z,8.07
2023-02-02T00:54:49.657Z,8.10
2023-02-02T00:57:19.530Z,8.11
2023-02-02T00:59:51.927Z,8.12
2023-02-02T01:02:21.762Z,8.15
2023-02-02T01:04:51.799Z,8.13
2023-02-02T01:07:21.595Z,8.12
2023-02-02T01:09:51.656Z,8.10
2023-02-02T01:12:21.503Z,8.09
2023-02-02T01:14:54.179Z,8.06
2023-02-02T01:17:23.942Z,8.10
2023-02-02T01:19:54.217Z,8.11
2023-02-02T01:22:23.984Z,8.08
2023-02-02T01:24:53.795Z,8.06
2023-02-02T01:27:23.561Z,8.03
2023-02-02T01:29:55.927Z,8.04
2023-02-02T01:32:25.642Z,8.03
2023-02-02T01:34:55.363Z,8.07
2023-02-02T01:37:25.149Z,8.12
2023-02-02T01:39:54.891Z,8.12
2023-02-02T01:42:26.427Z,8.12
2023-02-02T01:45:22.743Z,8.09
2023-02-02T01:47:56.999Z,8.09
2023-02-02T01:50:30.270Z,8.08
2023-02-02T01:53:03.656Z,8.09
2023-02-02T01:55:35.623Z,8.07
2023-02-02T01:58:09.140Z,8.07
2023-02-02T02:00:45.649Z,8.07
2023-02-02T02:03:19.800Z,8.08
2023-02-02T02:05:52.390Z,8.09
2023-02-02T02:08:24.475Z,8.10
2023-02-02T02:10:54.213Z,8.12
2023-02-02T02:13:46.611Z,8.14
2023-02-02T02:16:29.350Z,8.12
2023-02-02T02:19:15.668Z,8.15
2023-02-02T02:22:09.025Z,8.17
2023-02-02T02:25:20.963Z,8.16
2023-02-02T02:28:22.675Z,8.18
2023-02-02T02:31:08.326Z,8.17
2023-02-02T02:33:49.596Z,8.17
2023-02-02T02:36:27.011Z,8.23
2023-02-02T02:39:03.211Z,8.25
2023-02-02T02:41:41.007Z,8.23
2023-02-02T02:44:14.734Z,8.24
2023-02-02T02:46:45.643Z,8.26
2023-02-02T02:49:18.043Z,8.24
2023-02-02T02:51:49.856Z,8.25
2023-02-02T02:54:23.516Z,8.25
2023-02-02T02:57:19.126Z,8.27
2023-02-02T02:59:56.912Z,8.31
2023-02-02T03:02:38.456Z,8.32
2023-02-02T03:05:27.787Z,8.34
2023-02-02T03:08:07.101Z,8.37
2023-02-02T03:10:38.686Z,8.39
2023-02-02T03:13:11.812Z,8.41
2023-02-02T03:15:43.894Z,8.41
2023-02-02T03:18:14.679Z,8.38
2023-02-02T03:20:48.203Z,8.38
2023-02-02T03:23:18.445Z,8.35
2023-02-02T03:25:48.768Z,8.29
2023-02-02T03:28:19.329Z,8.29
2023-02-02T03:30:50.606Z,8.29
2023-02-02T03:33:21.400Z,8.32
2023-02-02T03:35:54.192Z,8.35
2023-02-02T03:38:23.943Z,8.37
2023-02-02T03:40:54.307Z,8.34
2023-02-02T03:43:25.087Z,8.39
2023-02-02T03:45:59.494Z,8.41
2023-02-02T03:48:29.751Z,8.41
2023-02-02T03:51:02.107Z,8.42
2023-02-02T03:53:32.122Z,8.43
2023-02-02T03:56:01.870Z,8.41
2023-02-02T03:58:31.592Z,8.36
2023-02-02T04:01:05.146Z,8.34
2023-02-02T04:03:35.379Z,8.35
2023-02-02T04:06:08.268Z,8.37
2023-02-02T04:08:39.838Z,8.37
2023-02-02T04:11:12.982Z,8.38
2023-02-02T04:13:43.503Z,8.36
2023-02-02T04:16:13.818Z,8.35
2023-02-02T04:18:43.599Z,8.39
2023-02-02T04:21:16.090Z,8.42
2023-02-02T04:23:45.839Z,8.43
2023-02-02T04:26:15.897Z,8.45
2023-02-02T04:28:45.626Z,8.49
2023-02-02T04:31:15.467Z,8.50
2023-02-02T04:33:45.442Z,8.48
2023-02-02T04:36:18.016Z,8.45
2023-02-02T04:38:51.665Z,8.46
2023-02-02T04:41:21.784Z,8.42
2023-02-02T04:43:51.604Z,8.42
2023-02-02T04:46:21.441Z,8.44
2023-02-02T04:48:52.110Z,8.38
2023-02-02T04:51:24.478Z,8.41
2023-02-02T04:53:54.280Z,8.43
2023-02-02T04:56:24.012Z,8.42
2023-02-02T04:58:57.189Z,8.43
2023-02-02T05:01:27.258Z,8.46
2023-02-02T05:03:57.579Z,8.49
2023-02-02T05:06:29.899Z,8.49
2023-02-02T05:09:00.124Z,8.51
2023-02-02T05:11:31.081Z,8.52
2023-02-02T05:14:00.885Z,8.47
2023-02-02T05:16:30.765Z,8.49
2023-02-02T05:19:00.725Z,8.52
2023-02-02T05:21:33.071Z,8.44
2023-02-02T05:24:03.744Z,8.47
2023-02-02T05:26:33.623Z,8.50
2023-02-02T05:29:03.589Z,8.42
2023-02-02T05:31:34.134Z,8.40
2023-02-02T05:34:03.880Z,8.43
2023-02-02T05:36:36.155Z,8.47
2023-02-02T05:39:05.959Z,8.46
2023-02-02T05:41:35.781Z,8.44
2023-02-02T05:44:06.699Z,8.39
2023-02-02T05:46:36.478Z,8.38
2023-02-02T05:49:06.683Z,8.49
2023-02-02T05:51:44.018Z,8.53
2023-02-02T05:54:17.443Z,8.57
2023-02-02T05:56:47.181Z,8.55
2023-02-02T05:59:17.553Z,8.60
2023-02-02T06:01:47.882Z,8.54
2023-02-02T06:04:18.316Z,8.55
2023-02-02T06:06:50.802Z,8.43
2023-02-02T06:09:20.541Z,8.46
2023-02-02T06:11:50.460Z,8.47
2023-02-02T06:14:20.537Z,8.50
2023-02-02T06:16:50.367Z,8.50
2023-02-02T06:19:20.328Z,8.50
2023-02-02T06:21:52.958Z,8.50
2023-02-02T06:24:22.724Z,8.49
2023-02-02T06:26:52.576Z,8.50
2023-02-02T06:29:22.422Z,8.47
2023-02-02T06:31:52.355Z,8.46
2023-02-02T06:34:22.370Z,8.52
2023-02-02T06:36:54.706Z,8.52
2023-02-02T06:39:24.390Z,8.56
2023-02-02T06:41:54.135Z,8.55
2023-02-02T06:44:23.918Z,8.58
2023-02-02T06:46:53.712Z,8.62
2023-02-02T06:49:23.692Z,8.59
2023-02-02T06:51:56.124Z,8.60
2023-02-02T06:54:26.014Z,8.54
2023-02-02T06:56:56.215Z,8.52
2023-02-02T06:59:25.993Z,8.49
2023-02-02T07:01:55.985Z,8.52
2023-02-02T07:04:25.809Z,8.59
2023-02-02T07:06:58.296Z,8.52
2023-02-02T07:09:28.250Z,8.56
2023-02-02T07:11:59.455Z,8.59
2023-02-02T07:14:29.935Z,8.62
2023-02-02T07:16:59.791Z,8.62
2023-02-02T07:19:29.543Z,8.66
2023-02-02T07:22:02.013Z,8.68
2023-02-02T07:24:33.020Z,8.69
2023-02-02T07:27:02.800Z,8.69
2023-02-02T07:29:32.691Z,8.66
2023-02-02T07:32:02.510Z,8.68
2023-02-02T07:34:32.244Z,8.69
2023-02-02T07:37:04.779Z,8.67
2023-02-02T07:39:34.570Z,8.61
2023-02-02T07:42:05.606Z,8.63
2023-02-02T07:44:35.442Z,8.64
2023-02-02T07:47:05.250Z,8.62
2023-02-02T07:49:35.370Z,8.58
2023-02-02T07:52:07.874Z,8.55
2023-02-02T07:54:37.760Z,8.61
2023-02-02T07:57:07.709Z,8.65
2023-02-02T07:59:37.460Z,8.69
2023-02-02T08:02:07.394Z,8.71
2023-02-02T08:04:37.203Z,8.69
2023-02-02T08:07:09.877Z,8.71
2023-02-02T08:09:39.749Z,8.73
2023-02-02T08:12:09.592Z,8.62
2023-02-02T08:14:39.500Z,8.68
2023-02-02T08:17:09.510Z,8.63
2023-02-02T08:19:39.290Z,8.63
2023-02-02T08:22:11.705Z,8.63
2023-02-02T08:24:43.056Z,8.61
2023-02-02T08:27:13.645Z,8.55
2023-02-02T08:29:43.433Z,8.59
2023-02-02T08:32:13.282Z,8.57
2023-02-02T08:34:43.163Z,8.53
2023-02-02T08:37:15.696Z,8.57
2023-02-02T08:39:45.847Z,8.53
2023-02-02T08:42:16.020Z,8.60
2023-02-02T08:46:03.354Z,8.57
2023-02-02T08:47:38.138Z,8.61
2023-02-02T08:50:09.503Z,8.60
2023-02-02T08:52:41.947Z,8.58
2023-02-02T08:55:12.253Z,8.59
2023-02-02T08:57:42.335Z,8.57
2023-02-02T09:00:13.902Z,8.58
2023-02-02T09:02:43.644Z,8.59
2023-02-02T09:05:13.407Z,8.54
2023-02-02T09:07:47.317Z,8.50
2023-02-02T09:10:17.213Z,8.52
2023-02-02T09:12:47.065Z,8.51
2023-02-02T09:15:16.919Z,8.57
2023-02-02T09:17:46.640Z,8.55
2023-02-02T09:20:16.423Z,8.47
2023-02-02T09:22:48.793Z,8.43
2023-02-02T09:25:18.733Z,8.52
2023-02-02T09:27:48.481Z,8.60
2023-02-02T09:30:18.629Z,8.66
2023-02-02T09:32:51.239Z,8.67
2023-02-02T09:35:21.016Z,8.70
2023-02-02T09:37:53.512Z,8.69
2023-02-02T09:40:27.970Z,8.70
2023-02-02T09:43:08.456Z,8.68
2023-02-02T09:45:44.244Z,8.67
2023-02-02T09:48:29.836Z,8.67
2023-02-02T09:51:02.471Z,8.71
2023-02-02T09:53:55.240Z,8.71
2023-02-02T09:56:30.259Z,8.71
2023-02-02T09:59:18.808Z,8.74
2023-02-02T10:01:52.899Z,8.72
2023-02-02T10:04:29.428Z,8.71
2023-02-02T10:07:02.057Z,8.68
2023-02-02T10:09:43.784Z,8.70
2023-02-02T10:12:28.592Z,8.71
2023-02-02T10:15:04.409Z,8.75
2023-02-02T10:17:43.809Z,8.74
2023-02-02T10:20:25.707Z,8.69
2023-02-02T10:22:59.023Z,8.79
2023-02-02T10:25:32.577Z,8.80
2023-02-02T10:28:09.902Z,8.76
2023-02-02T10:30:48.117Z,8.71
2023-02-02T10:33:28.884Z,8.77
2023-02-02T10:36:05.223Z,8.82
2023-02-02T10:38:44.994Z,8.80
2023-02-02T10:41:27.094Z,8.76
2023-02-02T10:44:12.145Z,8.79
2023-02-02T10:46:45.053Z,8.84
2023-02-02T10:49:20.481Z,8.84
2023-02-02T10:51:58.284Z,8.81
2023-02-02T10:54:57.817Z,8.83
2023-02-02T10:57:49.982Z,8.96
2023-02-02T11:00:25.602Z,9.00
2023-02-02T11:02:56.347Z,9.03
2023-02-02T11:05:40.148Z,9.04
2023-02-02T11:08:18.471Z,9.04
2023-02-02T11:10:49.762Z,9.05
2023-02-02T11:13:30.404Z,9.00
2023-02-02T11:16:23.175Z,9.04
2023-02-02T11:18:53.402Z,9.07
2023-02-02T11:21:27.026Z,9.09
2023-02-02T11:23:58.674Z,9.08
2023-02-02T11:26:29.907Z,9.06
2023-02-02T11:29:02.611Z,9.07
2023-02-02T11:31:37.106Z,9.09
2023-02-02T11:34:20.910Z,9.02
2023-02-02T11:37:18.795Z,9.05
2023-02-02T11:39:48.652Z,9.10
2023-02-02T11:42:20.258Z,9.16
2023-02-02T11:44:55.132Z,9.21
2023-02-02T11:47:29.685Z,9.15
2023-02-02T11:50:02.136Z,9.17
2023-02-02T11:52:36.176Z,9.13
2023-02-02T11:55:18.277Z,9.12
2023-02-02T11:58:25.053Z,9.10
2023-02-02T12:01:00.541Z,9.20
2023-02-02T12:03:33.304Z,9.20
2023-02-02T12:06:04.911Z,9.22
2023-02-02T12:08:34.678Z,9.26
2023-02-02T12:11:08.242Z,9.26
2023-02-02T12:13:53.190Z,9.25
2023-02-02T12:16:43.488Z,9.25
2023-02-02T12:19:44.337Z,9.25
2023-02-02T12:22:27.424Z,9.29
2023-02-02T12:25:03.280Z,9.35
2023-02-02T12:27:42.592Z,9.37
2023-02-02T12:30:32.584Z,9.38
2023-02-02T12:33:24.304Z,9.35
2023-02-02T12:36:14.958Z,9.28
2023-02-02T12:39:06.508Z,9.27
2023-02-02T12:42:05.257Z,9.31
2023-02-02T12:44:45.779Z,9.34
2023-02-02T12:47:24.240Z,9.32
2023-02-02T12:50:07.605Z,9.26
2023-02-02T12:52:54.585Z,9.32
2023-02-02T12:55:33.041Z,9.32
2023-02-02T12:58:15.792Z,9.34
2023-02-02T13:01:04.499Z,9.19
2023-02-02T13:03:45.114Z,9.29
2023-02-02T13:06:40.315Z,9.18
2023-02-02T13:09:15.015Z,9.30
2023-02-02T13:11:50.159Z,9.29
2023-02-02T13:14:25.544Z,9.34
2023-02-02T13:17:00.039Z,9.29
2023-02-02T13:19:35.226Z,9.32
2023-02-02T13:22:14.559Z,9.34
2023-02-02T13:24:47.775Z,9.35
2023-02-02T13:27:22.671Z,9.38
2023-02-02T13:29:57.480Z,9.36
2023-02-02T13:32:32.155Z,9.29
2023-02-02T13:35:06.323Z,9.33
2023-02-02T13:37:45.509Z,9.32
2023-02-02T13:40:27.073Z,9.31
2023-02-02T13:43:03.448Z,9.33
2023-02-02T13:45:45.613Z,9.27
2023-02-02T13:48:25.884Z,9.28
2023-02-02T13:51:15.186Z,9.28
2023-02-02T13:54:01.586Z,9.34
2023-02-02T13:56:43.379Z,9.34
2023-02-02T13:59:50.594Z,9.32
2023-02-02T14:02:26.687Z,9.39
2023-02-02T14:04:59.221Z,9.37
2023-02-02T14:07:41.928Z,9.35
2023-02-02T14:10:28.423Z,9.36
2023-02-02T14:13:01.501Z,9.37
2023-02-02T14:15:42.970Z,9.33
2023-02-02T14:18:12.843Z,9.35
2023-02-02T14:20:46.294Z,9.36
2023-02-02T14:23:51.308Z,9.31
2023-02-02T14:26:44.380Z,9.29
2023-02-02T14:29:39.641Z,9.29
2023-02-02T14:32:34.886Z,9.28
2023-02-02T14:35:40.470Z,9.32
2023-02-02T14:38:14.953Z,9.40
2023-02-02T14:40:52.519Z,9.41
2023-02-02T14:43:44.838Z,9.43
2023-02-02T14:46:48.569Z,9.39
2023-02-02T14:49:24.646Z,9.45
2023-02-02T14:51:58.565Z,9.46
2023-02-02T14:54:36.639Z,9.43
2023-02-02T14:57:10.502Z,9.43
2023-02-02T14:59:48.662Z,9.43
2023-02-02T15:02:22.392Z,9.42
2023-02-02T15:04:52.617Z,9.40
2023-02-02T15:07:52.336Z,9.37
2023-02-02T15:10:53.911Z,9.35
2023-02-02T15:13:24.861Z,9.37
2023-02-02T15:16:14.206Z,9.34
2023-02-02T15:18:47.605Z,9.37
2023-02-02T15:21:22.130Z,9.42
2023-02-02T15:23:52.004Z,9.44
2023-02-02T15:26:26.697Z,9.46
2023-02-02T15:29:02.719Z,9.46
2023-02-02T15:31:38.650Z,9.46
2023-02-02T15:34:20.908Z,9.43
2023-02-02T15:36:54.438Z,9.43
2023-02-02T15:39:30.851Z,9.42
2023-02-02T15:42:16.840Z,9.43
2023-02-02T15:44:46.888Z,9.44
2023-02-02T15:47:23.363Z,9.40
2023-02-02T15:49:53.142Z,9.34
2023-02-02T15:52:29.083Z,9.36
2023-02-02T15:55:00.999Z,9.36
2023-02-02T15:57:33.486Z,9.36
2023-02-02T16:00:24.222Z,9.32
2023-02-02T16:03:01.506Z,9.34
2023-02-02T16:05:47.643Z,9.35
2023-02-02T16:08:22.636Z,9.39
2023-02-02T16:10:52.741Z,9.39
2023-02-02T16:13:28.528Z,9.40
2023-02-02T16:16:00.646Z,9.39
2023-02-02T16:18:33.349Z,9.38
2023-02-02T16:21:07.671Z,9.37
2023-02-02T16:23:38.829Z,9.31
2023-02-02T16:26:10.293Z,9.29
2023-02-02T16:28:40.333Z,9.28
2023-02-02T16:31:10.980Z,9.25
2023-02-02T16:33:45.784Z,9.25
2023-02-02T16:36:25.938Z,9.22
2023-02-02T16:38:58.013Z,9.21
2023-02-02T16:41:32.402Z,9.24
2023-02-02T16:44:32.444Z,9.13
2023-02-02T16:47:03.172Z,9.20
2023-02-02T16:49:36.371Z,9.23
2023-02-02T16:52:16.319Z,9.22
2023-02-02T16:54:54.339Z,9.25
2023-02-02T16:57:28.557Z,9.25
2023-02-02T17:00:01.891Z,9.25
2023-02-02T17:02:35.452Z,9.22
2023-02-02T17:05:13.244Z,9.21
2023-02-02T17:07:50.808Z,9.18
2023-02-02T17:10:31.059Z,9.15
2023-02-02T17:13:01.979Z,9.16
2023-02-02T17:15:35.851Z,9.12
2023-02-02T17:18:07.617Z,9.12
2023-02-02T17:20:40.077Z,9.12
2023-02-02T17:23:11.439Z,9.14
2023-02-02T17:25:45.714Z,9.11
2023-02-02T17:28:18.879Z,9.07
2023-02-02T17:30:50.072Z,9.13
2023-02-02T17:33:21.867Z,9.17
2023-02-02T17:35:56.228Z,9.18
2023-02-02T17:38:28.016Z,9.15
2023-02-02T17:41:01.682Z,9.15
2023-02-02T17:43:32.148Z,9.14
2023-02-02T17:46:02.380Z,9.17
2023-02-02T17:48:32.798Z,9.16
2023-02-02T17:51:07.318Z,9.12
2023-02-02T17:53:37.170Z,9.10
2023-02-02T17:56:07.505Z,9.10
2023-02-02T17:58:37.377Z,9.09
2023-02-02T18:01:07.939Z,9.07
2023-02-02T18:03:41.643Z,9.08
2023-02-02T18:06:15.062Z,9.09
2023-02-02T18:08:45.652Z,9.13
2023-02-02T18:11:18.809Z,9.13
2023-02-02T18:13:48.945Z,9.12
2023-02-02T18:16:19.920Z,9.10
2023-02-02T18:18:49.746Z,9.15
2023-02-02T18:21:22.198Z,9.16
2023-02-02T18:23:52.139Z,9.10
2023-02-02T18:26:24.456Z,9.19
2023-02-02T18:28:54.873Z,9.19
2023-02-02T18:31:26.959Z,9.19
2023-02-02T18:33:57.335Z,9.15
2023-02-02T18:36:29.797Z,9.15
2023-02-02T18:38:59.909Z,9.14
2023-02-02T18:41:30.433Z,9.16
2023-02-02T18:44:00.721Z,9.16
2023-02-02T18:46:33.952Z,9.18
2023-02-02T18:49:04.031Z,9.22
2023-02-02T18:51:36.419Z,9.20
2023-02-02T18:54:06.325Z,9.20
2023-02-02T18:56:36.144Z,9.21
2023-02-02T18:59:06.597Z,9.21
2023-02-02T19:01:37.411Z,9.23
2023-02-02T19:04:07.701Z,9.21
2023-02-02T19:06:52.796Z,9.25
2023-02-02T19:09:22.623Z,9.29
2023-02-02T19:11:55.050Z,9.30
2023-02-02T19:14:27.715Z,9.27
2023-02-02T19:17:02.229Z,9.24
2023-02-02T19:19:36.022Z,9.26
2023-02-02T19:22:20.093Z,9.23
2023-02-02T19:24:50.556Z,9.24
2023-02-02T19:27:22.400Z,9.24
2023-02-02T19:29:53.888Z,9.26
2023-02-02T19:32:27.000Z,9.25
2023-02-02T19:34:58.730Z,9.25
2023-02-02T19:37:33.036Z,9.23
2023-02-02T19:40:19.409Z,9.18
2023-02-02T19:42:52.401Z,9.23
2023-02-02T19:45:25.413Z,9.23
2023-02-02T19:47:57.229Z,9.21
2023-02-02T19:50:29.669Z,9.25
2023-02-02T19:53:06.778Z,9.24
2023-02-02T19:55:39.298Z,9.25
2023-02-02T19:58:18.751Z,9.23
2023-02-02T20:00:49.458Z,9.25
2023-02-02T20:03:21.611Z,9.22
2023-02-02T20:05:53.662Z,9.21
2023-02-02T20:08:41.751Z,9.20
2023-02-02T20:11:31.997Z,9.15
2023-02-02T20:14:03.101Z,9.18
2023-02-02T20:16:40.887Z,9.16
2023-02-02T20:19:19.584Z,9.13
2023-02-02T20:21:51.749Z,9.14
2023-02-02T20:24:27.363Z,9.10
2023-02-02T20:26:58.784Z,9.11
2023-02-02T20:29:35.969Z,9.11
2023-02-02T20:32:07.809Z,9.15
2023-02-02T20:34:43.303Z,9.15
2023-02-02T20:37:23.970Z,9.16
2023-02-02T20:40:00.295Z,9.15
2023-02-02T20:42:31.310Z,9.18
2023-02-02T20:45:01.262Z,9.17
2023-02-02T20:47:31.046Z,9.17
2023-02-02T20:50:01.289Z,9.16
2023-02-02T20:52:31.203Z,9.15
2023-02-02T20:55:03.852Z,9.17
2023-02-02T20:57:33.833Z,9.13
2023-02-02T21:00:03.963Z,9.12
2023-02-02T21:02:33.788Z,9.10
2023-02-02T21:05:04.822Z,9.09
2023-02-02T21:07:34.736Z,9.09
2023-02-02T21:10:07.853Z,9.09
2023-02-02T21:12:37.652Z,9.11
2023-02-02T21:15:08.095Z,9.13
2023-02-02T21:17:37.828Z,9.15
2023-02-02T21:20:08.850Z,9.18
2023-02-02T21:22:38.569Z,9.20
2023-02-02T21:25:12.532Z,9.20
2023-02-02T21:27:44.622Z,9.19
2023-02-02T21:30:16.067Z,9.18
2023-02-02T21:32:45.902Z,9.19
2023-02-02T21:35:15.948Z,9.21
2023-02-02T21:37:47.385Z,9.20
2023-02-02T21:40:28.793Z,9.13
2023-02-02T21:43:01.652Z,9.18
2023-02-02T21:45:37.275Z,9.19
2023-02-02T21:48:23.239Z,9.17
2023-02-02T21:50:53.231Z,9.16
2023-02-02T21:53:25.212Z,9.18
2023-02-02T21:56:00.182Z,9.19
2023-02-02T21:58:36.332Z,9.18
2023-02-02T22:01:21.344Z,9.19
2023-02-02T22:03:51.937Z,9.24
2023-02-02T22:06:31.133Z,9.24
2023-02-02T22:09:05.013Z,9.26
2023-02-02T22:11:45.724Z,9.27
2023-02-02T22:14:20.563Z,9.25
2023-02-02T22:16:53.183Z,9.24
2023-02-02T22:19:35.732Z,9.24
2023-02-02T22:22:18.332Z,9.24
2023-02-02T22:24:50.885Z,9.27
2023-02-02T22:27:26.298Z,9.25
2023-02-02T22:30:03.729Z,9.25
2023-02-02T22:32:33.472Z,9.28
2023-02-02T22:35:03.185Z,9.27
2023-02-02T22:37:32.990Z,9.29
2023-02-02T22:40:03.136Z,9.30
2023-02-02T22:42:35.580Z,9.33
2023-02-02T22:45:05.503Z,9.36
2023-02-02T22:47:35.457Z,9.38
2023-02-02T22:50:05.174Z,9.43
2023-02-02T22:52:34.912Z,9.45
2023-02-02T22:55:04.681Z,9.45
2023-02-02T22:57:37.081Z,9.42
2023-02-02T23:00:10.612Z,9.41
2023-02-02T23:02:40.475Z,9.42
2023-02-02T23:05:12.705Z,9.42
2023-02-02T23:07:44.204Z,9.42
2023-02-02T23:10:16.103Z,9.42
2023-02-02T23:12:49.062Z,9.42
2023-02-02T23:15:19.610Z,9.38
2023-02-02T23:17:49.745Z,9.42
2023-02-02T23:20:19.682Z,9.45
2023-02-02T23:22:49.450Z,9.47
2023-02-02T23:25:20.215Z,9.47
2023-02-02T23:27:52.655Z,9.49
2023-02-02T23:30:24.563Z,9.53
2023-02-02T23:32:54.699Z,9.51
2023-02-02T23:35:24.411Z,9.52
2023-02-02T23:37:54.351Z,9.55
2023-02-02T23:40:24.474Z,9.56
2023-02-02T23:42:57.395Z,9.56
2023-02-02T23:45:27.446Z,9.57
2023-02-02T23:47:57.421Z,9.55
2023-02-02T23:50:27.675Z,9.57
2023-02-02T23:52:58.105Z,9.55
2023-02-02T23:55:27.950Z,9.52
2023-02-02T23:58:00.332Z,9.53
